MQC9205 HAAB-HKMO
Flight info
| Callsign | MQC9205 |
|---|---|
| Flight time | 1h 47m |
| Altitude | 35000 |
| Route | IMKIT3A IMKIT UT129 ALEMU/N0486F340 UN301 IBNOK IBNOK3A |
| Aircraft | B77L/H-SDE1E2E3FGHIJ2J3J4J5M1RWXY/LB1D1 |
Departure
| Time | 2026-04-27 16:37 |
|---|---|
| Airport | Addis Ababa Bole International Airport (HAAB) |
Arrival
| Time | 2026-04-27 18:25 |
|---|---|
| Airport | Moi International Airport (HKMO) |
| Time | Latitude | Longitude | Altitude | Speed | Heading |
|---|---|---|---|---|---|
| 2026-04-27 16:16 | 8.97712 | 38.78503 | 7635 ft | 0 kts | 163° |
| 2026-04-27 16:27 | 8.97743 | 38.78494 | 7635 ft | 4 kts | 163° |
| 2026-04-27 16:27 | 8.97786 | 38.78443 | 7635 ft | 4 kts | 84° |
| 2026-04-27 16:28 | 8.97782 | 38.78423 | 7635 ft | 0 kts | 73° |
| 2026-04-27 16:30 | 8.97789 | 38.78451 | 7635 ft | 10 kts | 79° |
| 2026-04-27 16:30 | 8.97861 | 38.78731 | 7635 ft | 24 kts | 73° |
| 2026-04-27 16:31 | 8.98002 | 38.79212 | 7635 ft | 24 kts | 73° |
| 2026-04-27 16:31 | 8.98097 | 38.79532 | 7635 ft | 24 kts | 73° |
| 2026-04-27 16:32 | 8.98053 | 38.79784 | 7635 ft | 21 kts | 168° |
| 2026-04-27 16:32 | 8.97909 | 38.79819 | 7635 ft | 21 kts | 164° |
| 2026-04-27 16:33 | 8.97705 | 38.79974 | 7638 ft | 21 kts | 77° |
| 2026-04-27 16:33 | 8.97748 | 38.80121 | 7635 ft | 23 kts | 73° |
| 2026-04-27 16:33 | 8.97798 | 38.80296 | 7635 ft | 28 kts | 74° |
| 2026-04-27 16:33 | 8.97853 | 38.80485 | 7635 ft | 28 kts | 73° |
| 2026-04-27 16:34 | 8.97907 | 38.80674 | 7635 ft | 28 kts | 74° |
| 2026-04-27 16:34 | 8.97963 | 38.80863 | 7635 ft | 28 kts | 73° |
| 2026-04-27 16:34 | 8.98018 | 38.81052 | 7635 ft | 28 kts | 73° |
| 2026-04-27 16:34 | 8.98073 | 38.81240 | 7635 ft | 28 kts | 73° |
| 2026-04-27 16:35 | 8.98128 | 38.81429 | 7635 ft | 28 kts | 74° |
| 2026-04-27 16:35 | 8.98192 | 38.81589 | 7635 ft | 21 kts | 28° |
| 2026-04-27 16:35 | 8.98331 | 38.81434 | 7635 ft | 7 kts | 252° |
| 2026-04-27 16:36 | 8.98330 | 38.81431 | 7635 ft | 1 kts | 252° |
| 2026-04-27 16:36 | 8.98303 | 38.81343 | 7635 ft | 30 kts | 253° |
| 2026-04-27 16:36 | 8.98174 | 38.80903 | 7637 ft | 99 kts | 253° |
| 2026-04-27 16:36 | 8.97917 | 38.80021 | 7635 ft | 160 kts | 253° |
| 2026-04-27 16:37 | 8.97547 | 38.78776 | 7659 ft | 203 kts | 257° |
| 2026-04-27 16:37 | 8.97188 | 38.77418 | 8107 ft | 202 kts | 257° |
| 2026-04-27 16:37 | 8.96803 | 38.75999 | 8467 ft | 213 kts | 252° |
| 2026-04-27 16:37 | 8.96367 | 38.74570 | 8897 ft | 219 kts | 252° |
| 2026-04-27 16:38 | 8.95895 | 38.73031 | 9053 ft | 241 kts | 252° |
| 2026-04-27 16:38 | 8.95325 | 38.71364 | 9198 ft | 263 kts | 245° |
| 2026-04-27 16:38 | 8.94495 | 38.69620 | 9318 ft | 286 kts | 241° |
| 2026-04-27 16:38 | 8.93563 | 38.67785 | 9707 ft | 299 kts | 242° |
| 2026-04-27 16:39 | 8.92609 | 38.65880 | 10252 ft | 307 kts | 242° |
| 2026-04-27 16:39 | 8.91625 | 38.63881 | 10512 ft | 330 kts | 243° |
| 2026-04-27 16:39 | 8.90569 | 38.61721 | 10644 ft | 354 kts | 243° |
| 2026-04-27 16:39 | 8.89157 | 38.59633 | 10728 ft | 371 kts | 222° |
| 2026-04-27 16:40 | 8.86967 | 38.58229 | 11182 ft | 376 kts | 203° |
| 2026-04-27 16:40 | 8.84544 | 38.57141 | 11680 ft | 386 kts | 203° |
| 2026-04-27 16:40 | 8.82060 | 38.56026 | 12293 ft | 394 kts | 204° |
| 2026-04-27 16:40 | 8.79526 | 38.54884 | 12907 ft | 404 kts | 204° |
| 2026-04-27 16:41 | 8.76958 | 38.53723 | 13760 ft | 404 kts | 205° |
| 2026-04-27 16:41 | 8.74386 | 38.52554 | 14434 ft | 410 kts | 205° |
| 2026-04-27 16:41 | 8.71766 | 38.51359 | 15061 ft | 415 kts | 204° |
| 2026-04-27 16:41 | 8.69119 | 38.50149 | 15749 ft | 419 kts | 204° |
| 2026-04-27 16:42 | 8.66471 | 38.48936 | 16599 ft | 418 kts | 204° |
| 2026-04-27 16:42 | 8.63811 | 38.47716 | 17227 ft | 424 kts | 204° |
| 2026-04-27 16:42 | 8.61147 | 38.46495 | 17819 ft | 429 kts | 203° |
| 2026-04-27 16:42 | 8.58332 | 38.45435 | 18325 ft | 428 kts | 189° |
| 2026-04-27 16:43 | 8.55381 | 38.45414 | 18793 ft | 427 kts | 166° |
| 2026-04-27 16:43 | 8.52628 | 38.46391 | 19363 ft | 423 kts | 155° |
| 2026-04-27 16:43 | 8.49862 | 38.47471 | 19730 ft | 431 kts | 160° |
| 2026-04-27 16:43 | 8.46969 | 38.48385 | 20244 ft | 436 kts | 161° |
| 2026-04-27 16:44 | 8.44050 | 38.49245 | 20818 ft | 438 kts | 162° |
| 2026-04-27 16:44 | 8.41074 | 38.50128 | 21341 ft | 441 kts | 161° |
| 2026-04-27 16:44 | 8.38125 | 38.51032 | 21854 ft | 445 kts | 161° |
| 2026-04-27 16:44 | 8.35159 | 38.51966 | 22350 ft | 449 kts | 160° |
| 2026-04-27 16:45 | 8.32206 | 38.52914 | 22815 ft | 453 kts | 161° |
| 2026-04-27 16:45 | 8.29197 | 38.53889 | 23277 ft | 456 kts | 160° |
| 2026-04-27 16:45 | 8.26166 | 38.54875 | 23740 ft | 459 kts | 160° |
| 2026-04-27 16:45 | 8.23118 | 38.55867 | 24140 ft | 462 kts | 160° |
| 2026-04-27 16:46 | 8.20048 | 38.56865 | 24552 ft | 464 kts | 161° |
| 2026-04-27 16:46 | 8.16967 | 38.57866 | 24933 ft | 467 kts | 161° |
| 2026-04-27 16:46 | 8.13876 | 38.58869 | 25325 ft | 469 kts | 161° |
| 2026-04-27 16:46 | 8.10758 | 38.59880 | 25720 ft | 472 kts | 161° |
| 2026-04-27 16:47 | 8.07630 | 38.60894 | 26097 ft | 474 kts | 161° |
| 2026-04-27 16:47 | 8.04472 | 38.61917 | 26456 ft | 477 kts | 161° |
| 2026-04-27 16:47 | 8.01302 | 38.62945 | 26831 ft | 480 kts | 161° |
| 2026-04-27 16:47 | 7.98119 | 38.63976 | 27199 ft | 482 kts | 160° |
| 2026-04-27 16:48 | 7.94954 | 38.65002 | 27550 ft | 485 kts | 160° |
| 2026-04-27 16:48 | 7.91694 | 38.66058 | 27910 ft | 487 kts | 161° |
| 2026-04-27 16:48 | 7.88505 | 38.67091 | 28309 ft | 489 kts | 160° |
| 2026-04-27 16:49 | 7.82009 | 38.69194 | 29019 ft | 493 kts | 160° |
| 2026-04-27 16:49 | 7.78747 | 38.70248 | 29357 ft | 495 kts | 160° |
| 2026-04-27 16:49 | 7.75433 | 38.71317 | 29719 ft | 497 kts | 160° |
| 2026-04-27 16:49 | 7.72134 | 38.72380 | 30020 ft | 499 kts | 160° |
| 2026-04-27 16:50 | 7.68841 | 38.73442 | 30313 ft | 501 kts | 161° |
| 2026-04-27 16:50 | 7.65528 | 38.74510 | 30660 ft | 500 kts | 161° |
| 2026-04-27 16:50 | 7.62212 | 38.75578 | 31083 ft | 499 kts | 161° |
| 2026-04-27 16:50 | 7.58913 | 38.76641 | 31497 ft | 497 kts | 161° |
| 2026-04-27 16:51 | 7.55655 | 38.77691 | 31907 ft | 496 kts | 161° |
| 2026-04-27 16:51 | 7.52328 | 38.78764 | 32309 ft | 496 kts | 161° |
| 2026-04-27 16:51 | 7.49037 | 38.79824 | 32701 ft | 495 kts | 161° |
| 2026-04-27 16:51 | 7.45769 | 38.80877 | 33118 ft | 494 kts | 161° |
| 2026-04-27 16:52 | 7.42532 | 38.81921 | 33517 ft | 493 kts | 161° |
| 2026-04-27 16:52 | 7.39279 | 38.82969 | 33917 ft | 492 kts | 161° |
| 2026-04-27 16:52 | 7.35987 | 38.84029 | 34231 ft | 493 kts | 161° |
| 2026-04-27 16:52 | 7.32732 | 38.85077 | 34577 ft | 492 kts | 161° |
| 2026-04-27 16:53 | 7.29413 | 38.86146 | 34929 ft | 491 kts | 161° |
| 2026-04-27 16:53 | 7.26155 | 38.87195 | 35052 ft | 494 kts | 161° |
| 2026-04-27 16:53 | 7.19608 | 38.89303 | 35053 ft | 493 kts | 161° |
| 2026-04-27 16:54 | 7.13097 | 38.91397 | 35052 ft | 490 kts | 161° |
| 2026-04-27 16:54 | 7.06613 | 38.93483 | 35080 ft | 489 kts | 161° |
| 2026-04-27 16:55 | 7.00137 | 38.95565 | 35081 ft | 488 kts | 161° |
| 2026-04-27 16:55 | 6.93713 | 38.97631 | 35087 ft | 488 kts | 161° |
| 2026-04-27 16:56 | 6.87240 | 38.99711 | 35085 ft | 488 kts | 161° |
| 2026-04-27 16:56 | 6.80776 | 39.01788 | 35082 ft | 488 kts | 161° |
| 2026-04-27 16:57 | 6.74299 | 39.03868 | 35082 ft | 489 kts | 161° |
| 2026-04-27 16:57 | 6.67817 | 39.05950 | 35079 ft | 489 kts | 161° |
| 2026-04-27 16:58 | 6.61329 | 39.08033 | 35078 ft | 490 kts | 161° |
| 2026-04-27 16:58 | 6.54820 | 39.10122 | 35057 ft | 491 kts | 161° |
| 2026-04-27 16:59 | 6.48307 | 39.12212 | 35030 ft | 491 kts | 161° |
| 2026-04-27 16:59 | 6.41788 | 39.14302 | 35029 ft | 492 kts | 161° |
| 2026-04-27 17:00 | 6.33104 | 39.17087 | 35007 ft | 493 kts | 161° |
| 2026-04-27 17:01 | 6.26572 | 39.19181 | 35013 ft | 493 kts | 161° |
| 2026-04-27 17:01 | 6.20039 | 39.21276 | 34998 ft | 493 kts | 161° |
| 2026-04-27 17:02 | 6.13506 | 39.23369 | 35004 ft | 493 kts | 161° |
| 2026-04-27 17:02 | 6.06964 | 39.25463 | 34992 ft | 493 kts | 161° |
| 2026-04-27 17:03 | 6.00424 | 39.27558 | 34992 ft | 494 kts | 161° |
| 2026-04-27 17:03 | 5.93872 | 39.29656 | 34987 ft | 494 kts | 161° |
| 2026-04-27 17:04 | 5.87318 | 39.31754 | 34977 ft | 494 kts | 161° |
| 2026-04-27 17:04 | 5.80779 | 39.33847 | 34980 ft | 492 kts | 161° |
| 2026-04-27 17:05 | 5.74263 | 39.35932 | 34977 ft | 491 kts | 161° |
| 2026-04-27 17:05 | 5.67769 | 39.38009 | 34981 ft | 489 kts | 161° |
| 2026-04-27 17:06 | 5.61152 | 39.39600 | 34987 ft | 489 kts | 169° |
| 2026-04-27 17:06 | 5.54432 | 39.40687 | 34983 ft | 490 kts | 170° |
| 2026-04-27 17:07 | 5.47695 | 39.41773 | 34977 ft | 490 kts | 169° |
| 2026-04-27 17:07 | 5.40960 | 39.42889 | 34970 ft | 491 kts | 169° |
| 2026-04-27 17:08 | 5.34266 | 39.44015 | 34966 ft | 492 kts | 169° |
| 2026-04-27 17:08 | 5.27513 | 39.45153 | 34967 ft | 492 kts | 169° |
| 2026-04-27 17:09 | 5.20758 | 39.46290 | 34971 ft | 493 kts | 169° |
| 2026-04-27 17:09 | 5.13990 | 39.47427 | 34955 ft | 493 kts | 169° |
| 2026-04-27 17:10 | 5.07222 | 39.48564 | 34961 ft | 493 kts | 169° |
| 2026-04-27 17:10 | 5.00451 | 39.49701 | 34956 ft | 493 kts | 169° |
| 2026-04-27 17:11 | 4.93676 | 39.50839 | 34945 ft | 494 kts | 169° |
| 2026-04-27 17:11 | 4.83518 | 39.52545 | 34947 ft | 494 kts | 169° |
| 2026-04-27 17:12 | 4.73348 | 39.54251 | 34945 ft | 494 kts | 169° |
| 2026-04-27 17:13 | 4.66578 | 39.55388 | 34949 ft | 493 kts | 169° |
| 2026-04-27 17:13 | 4.59806 | 39.56524 | 34945 ft | 493 kts | 169° |
| 2026-04-27 17:14 | 4.53040 | 39.57659 | 34946 ft | 493 kts | 169° |
| 2026-04-27 17:14 | 4.46276 | 39.58793 | 34953 ft | 493 kts | 169° |
| 2026-04-27 17:15 | 4.39512 | 39.59928 | 34957 ft | 492 kts | 169° |
| 2026-04-27 17:15 | 4.32754 | 39.61061 | 34959 ft | 492 kts | 169° |
| 2026-04-27 17:16 | 4.25997 | 39.62193 | 34960 ft | 492 kts | 169° |
| 2026-04-27 17:16 | 4.19236 | 39.63326 | 34962 ft | 492 kts | 169° |
| 2026-04-27 17:17 | 4.12471 | 39.64402 | 34960 ft | 493 kts | 173° |
| 2026-04-27 17:17 | 4.05603 | 39.64591 | 34967 ft | 494 kts | 179° |
| 2026-04-27 17:18 | 3.95317 | 39.64448 | 34962 ft | 495 kts | 179° |
| 2026-04-27 17:18 | 3.88432 | 39.64502 | 34964 ft | 495 kts | 178° |
| 2026-04-27 17:19 | 3.81542 | 39.64621 | 34961 ft | 495 kts | 177° |
| 2026-04-27 17:19 | 3.74654 | 39.64748 | 34960 ft | 495 kts | 177° |
| 2026-04-27 17:20 | 3.67756 | 39.64869 | 34963 ft | 496 kts | 178° |
| 2026-04-27 17:20 | 3.60857 | 39.64984 | 34957 ft | 496 kts | 178° |
| 2026-04-27 17:21 | 3.53962 | 39.65099 | 34959 ft | 496 kts | 178° |
| 2026-04-27 17:21 | 3.47063 | 39.65214 | 34954 ft | 496 kts | 177° |
| 2026-04-27 17:22 | 3.40159 | 39.65330 | 34951 ft | 496 kts | 177° |
| 2026-04-27 17:22 | 3.33298 | 39.65445 | 34952 ft | 497 kts | 177° |
| 2026-04-27 17:23 | 3.26382 | 39.65560 | 34943 ft | 497 kts | 177° |
| 2026-04-27 17:23 | 3.19473 | 39.65676 | 34940 ft | 497 kts | 177° |
| 2026-04-27 17:24 | 3.12556 | 39.65792 | 34941 ft | 497 kts | 177° |
| 2026-04-27 17:24 | 3.05638 | 39.65907 | 34943 ft | 497 kts | 177° |
| 2026-04-27 17:25 | 2.98718 | 39.66023 | 34930 ft | 497 kts | 177° |
| 2026-04-27 17:25 | 2.91798 | 39.66139 | 34929 ft | 497 kts | 177° |
| 2026-04-27 17:26 | 2.84877 | 39.66254 | 34928 ft | 497 kts | 177° |
| 2026-04-27 17:26 | 2.77958 | 39.66370 | 34929 ft | 497 kts | 177° |
| 2026-04-27 17:27 | 2.71041 | 39.66486 | 34928 ft | 497 kts | 177° |
| 2026-04-27 17:27 | 2.64123 | 39.66601 | 34926 ft | 497 kts | 177° |
| 2026-04-27 17:28 | 2.57211 | 39.66717 | 34920 ft | 497 kts | 177° |
| 2026-04-27 17:29 | 2.46837 | 39.66871 | 34924 ft | 497 kts | 177° |
| 2026-04-27 17:29 | 2.39919 | 39.66968 | 34918 ft | 497 kts | 177° |
| 2026-04-27 17:30 | 2.33048 | 39.67066 | 34912 ft | 497 kts | 177° |
| 2026-04-27 17:30 | 2.22672 | 39.67215 | 34910 ft | 497 kts | 177° |
| 2026-04-27 17:31 | 2.15752 | 39.67315 | 34910 ft | 497 kts | 177° |
| 2026-04-27 17:31 | 2.08835 | 39.67415 | 34910 ft | 497 kts | 177° |
| 2026-04-27 17:32 | 1.98457 | 39.67565 | 34906 ft | 497 kts | 177° |
| 2026-04-27 17:33 | 1.91542 | 39.67664 | 34905 ft | 497 kts | 177° |
| 2026-04-27 17:33 | 1.84629 | 39.67764 | 34905 ft | 497 kts | 177° |
| 2026-04-27 17:34 | 1.77713 | 39.67864 | 34906 ft | 497 kts | 177° |
| 2026-04-27 17:34 | 1.70803 | 39.67963 | 34907 ft | 497 kts | 177° |
| 2026-04-27 17:35 | 1.63888 | 39.68063 | 34904 ft | 497 kts | 177° |
| 2026-04-27 17:35 | 1.56977 | 39.68162 | 34904 ft | 497 kts | 177° |
| 2026-04-27 17:36 | 1.50070 | 39.68262 | 34903 ft | 497 kts | 177° |
| 2026-04-27 17:36 | 1.43159 | 39.68361 | 34904 ft | 497 kts | 177° |
| 2026-04-27 17:37 | 1.36247 | 39.68461 | 34906 ft | 497 kts | 177° |
| 2026-04-27 17:37 | 1.29378 | 39.68560 | 34908 ft | 497 kts | 177° |
| 2026-04-27 17:38 | 1.22465 | 39.68660 | 34908 ft | 497 kts | 177° |
| 2026-04-27 17:38 | 1.15546 | 39.68759 | 34909 ft | 497 kts | 177° |
| 2026-04-27 17:39 | 1.08581 | 39.68860 | 34910 ft | 497 kts | 177° |
| 2026-04-27 17:39 | 1.01705 | 39.68959 | 34907 ft | 498 kts | 177° |
| 2026-04-27 17:40 | 0.94772 | 39.69059 | 34910 ft | 498 kts | 177° |
| 2026-04-27 17:40 | 0.87841 | 39.69158 | 34907 ft | 498 kts | 178° |
| 2026-04-27 17:41 | 0.80908 | 39.69258 | 34907 ft | 499 kts | 178° |
| 2026-04-27 17:41 | 0.73972 | 39.69358 | 34907 ft | 499 kts | 178° |
| 2026-04-27 17:42 | 0.67031 | 39.69458 | 34907 ft | 499 kts | 178° |
| 2026-04-27 17:42 | 0.60094 | 39.69558 | 34907 ft | 499 kts | 178° |
| 2026-04-27 17:43 | 0.53155 | 39.69658 | 34906 ft | 499 kts | 178° |
| 2026-04-27 17:43 | 0.46212 | 39.69758 | 34907 ft | 499 kts | 178° |
| 2026-04-27 17:44 | 0.39269 | 39.69858 | 34907 ft | 499 kts | 178° |
| 2026-04-27 17:44 | 0.32321 | 39.69958 | 34910 ft | 499 kts | 178° |
| 2026-04-27 17:45 | 0.25376 | 39.70058 | 34908 ft | 499 kts | 178° |
| 2026-04-27 17:45 | 0.18424 | 39.70158 | 34914 ft | 500 kts | 178° |
| 2026-04-27 17:46 | 0.11454 | 39.70258 | 34913 ft | 501 kts | 178° |
| 2026-04-27 17:46 | 0.04485 | 39.70359 | 34913 ft | 501 kts | 178° |
| 2026-04-27 17:47 | -0.02490 | 39.70459 | 34913 ft | 501 kts | 178° |
| 2026-04-27 17:47 | -0.09448 | 39.70559 | 34911 ft | 500 kts | 178° |
| 2026-04-27 17:48 | -0.16407 | 39.70660 | 34904 ft | 500 kts | 178° |
| 2026-04-27 17:48 | -0.22193 | 39.70743 | 34890 ft | 499 kts | 178° |
| 2026-04-27 17:49 | -0.29133 | 39.70843 | 34878 ft | 499 kts | 178° |
| 2026-04-27 17:49 | -0.36069 | 39.70943 | 34866 ft | 498 kts | 178° |
| 2026-04-27 17:50 | -0.43002 | 39.71042 | 34855 ft | 498 kts | 178° |
| 2026-04-27 17:50 | -0.53393 | 39.71192 | 34861 ft | 498 kts | 178° |
| 2026-04-27 17:51 | -0.60319 | 39.71292 | 34873 ft | 498 kts | 178° |
| 2026-04-27 17:51 | -0.67240 | 39.71392 | 34885 ft | 497 kts | 178° |
| 2026-04-27 17:52 | -0.74156 | 39.71491 | 34913 ft | 496 kts | 178° |
| 2026-04-27 17:52 | -0.81060 | 39.71591 | 34915 ft | 496 kts | 178° |
| 2026-04-27 17:53 | -0.87957 | 39.71690 | 34918 ft | 495 kts | 178° |
| 2026-04-27 17:53 | -0.94793 | 39.71788 | 34923 ft | 494 kts | 177° |
| 2026-04-27 17:54 | -1.01651 | 39.71887 | 34914 ft | 492 kts | 177° |
| 2026-04-27 17:54 | -1.08485 | 39.71985 | 34919 ft | 490 kts | 177° |
| 2026-04-27 17:55 | -1.15295 | 39.72083 | 34919 ft | 489 kts | 177° |
| 2026-04-27 17:55 | -1.22094 | 39.72181 | 34928 ft | 488 kts | 177° |
| 2026-04-27 17:56 | -1.28873 | 39.72279 | 34918 ft | 487 kts | 177° |
| 2026-04-27 17:56 | -1.35636 | 39.72376 | 34923 ft | 485 kts | 177° |
| 2026-04-27 17:57 | -1.42388 | 39.72474 | 34923 ft | 485 kts | 177° |
| 2026-04-27 17:57 | -1.49131 | 39.72571 | 34925 ft | 485 kts | 178° |
| 2026-04-27 17:58 | -1.55874 | 39.72668 | 34926 ft | 485 kts | 177° |
| 2026-04-27 17:58 | -1.62621 | 39.72765 | 34927 ft | 485 kts | 177° |
| 2026-04-27 17:59 | -1.69369 | 39.72863 | 34926 ft | 485 kts | 178° |
| 2026-04-27 17:59 | -1.76125 | 39.72960 | 34926 ft | 485 kts | 178° |
| 2026-04-27 18:00 | -1.82885 | 39.73058 | 34930 ft | 487 kts | 178° |
| 2026-04-27 18:00 | -1.89550 | 39.73154 | 34497 ft | 480 kts | 178° |
| 2026-04-27 18:01 | -1.92875 | 39.73201 | 34038 ft | 476 kts | 178° |
| 2026-04-27 18:01 | -1.96171 | 39.73249 | 33512 ft | 472 kts | 178° |
| 2026-04-27 18:01 | -1.99443 | 39.73296 | 33006 ft | 469 kts | 178° |
| 2026-04-27 18:01 | -2.02690 | 39.73342 | 32512 ft | 465 kts | 179° |
| 2026-04-27 18:02 | -2.05916 | 39.73389 | 32027 ft | 461 kts | 179° |
| 2026-04-27 18:02 | -2.09112 | 39.73435 | 31549 ft | 458 kts | 179° |
| 2026-04-27 18:02 | -2.12286 | 39.73481 | 31087 ft | 455 kts | 179° |
| 2026-04-27 18:02 | -2.15437 | 39.73527 | 30606 ft | 452 kts | 179° |
| 2026-04-27 18:03 | -2.18577 | 39.73572 | 30122 ft | 450 kts | 179° |
| 2026-04-27 18:03 | -2.21695 | 39.73617 | 29587 ft | 447 kts | 179° |
| 2026-04-27 18:03 | -2.24801 | 39.73661 | 29071 ft | 444 kts | 179° |
| 2026-04-27 18:03 | -2.27875 | 39.73706 | 28577 ft | 441 kts | 179° |
| 2026-04-27 18:04 | -2.30930 | 39.73750 | 28097 ft | 437 kts | 179° |
| 2026-04-27 18:04 | -2.33961 | 39.73793 | 27630 ft | 434 kts | 178° |
| 2026-04-27 18:04 | -2.36973 | 39.73837 | 27166 ft | 431 kts | 178° |
| 2026-04-27 18:04 | -2.39966 | 39.73880 | 26710 ft | 429 kts | 178° |
| 2026-04-27 18:05 | -2.42941 | 39.73923 | 26252 ft | 426 kts | 178° |
| 2026-04-27 18:05 | -2.45900 | 39.73966 | 25801 ft | 424 kts | 178° |
| 2026-04-27 18:05 | -2.48842 | 39.74008 | 25342 ft | 422 kts | 178° |
| 2026-04-27 18:05 | -2.51777 | 39.74050 | 24879 ft | 421 kts | 178° |
| 2026-04-27 18:06 | -2.54703 | 39.74093 | 24424 ft | 419 kts | 177° |
| 2026-04-27 18:06 | -2.57579 | 39.74134 | 23981 ft | 418 kts | 178° |
| 2026-04-27 18:06 | -2.60522 | 39.74177 | 23531 ft | 417 kts | 177° |
| 2026-04-27 18:06 | -2.63415 | 39.74252 | 23001 ft | 415 kts | 175° |
| 2026-04-27 18:07 | -2.66285 | 39.74467 | 22535 ft | 412 kts | 174° |
| 2026-04-27 18:07 | -2.69127 | 39.74750 | 22084 ft | 409 kts | 173° |
| 2026-04-27 18:07 | -2.71909 | 39.75045 | 21650 ft | 406 kts | 173° |
| 2026-04-27 18:07 | -2.74712 | 39.75338 | 21210 ft | 404 kts | 173° |
| 2026-04-27 18:08 | -2.77502 | 39.75620 | 20771 ft | 402 kts | 174° |
| 2026-04-27 18:08 | -2.80275 | 39.75892 | 20335 ft | 400 kts | 173° |
| 2026-04-27 18:08 | -2.83033 | 39.76157 | 19894 ft | 398 kts | 174° |
| 2026-04-27 18:08 | -2.85822 | 39.76421 | 19452 ft | 396 kts | 174° |
| 2026-04-27 18:09 | -2.88561 | 39.76679 | 19007 ft | 395 kts | 174° |
| 2026-04-27 18:09 | -2.91256 | 39.76931 | 18568 ft | 394 kts | 174° |
| 2026-04-27 18:09 | -2.93986 | 39.77186 | 18111 ft | 393 kts | 174° |
| 2026-04-27 18:09 | -2.96711 | 39.77441 | 17617 ft | 392 kts | 174° |
| 2026-04-27 18:10 | -2.99421 | 39.77695 | 17169 ft | 390 kts | 174° |
| 2026-04-27 18:10 | -3.02116 | 39.77947 | 16724 ft | 388 kts | 174° |
| 2026-04-27 18:10 | -3.04798 | 39.78199 | 16285 ft | 386 kts | 174° |
| 2026-04-27 18:10 | -3.07466 | 39.78449 | 15852 ft | 384 kts | 174° |
| 2026-04-27 18:11 | -3.10122 | 39.78698 | 15419 ft | 383 kts | 174° |
| 2026-04-27 18:11 | -3.12766 | 39.78945 | 14993 ft | 381 kts | 174° |
| 2026-04-27 18:11 | -3.15404 | 39.79193 | 14544 ft | 380 kts | 175° |
| 2026-04-27 18:11 | -3.18033 | 39.79439 | 14118 ft | 379 kts | 175° |
| 2026-04-27 18:12 | -3.20654 | 39.79685 | 13672 ft | 378 kts | 175° |
| 2026-04-27 18:12 | -3.23270 | 39.79930 | 13197 ft | 377 kts | 175° |
| 2026-04-27 18:12 | -3.25873 | 39.80174 | 12757 ft | 375 kts | 175° |
| 2026-04-27 18:12 | -3.28464 | 39.80417 | 12322 ft | 373 kts | 175° |
| 2026-04-27 18:13 | -3.31038 | 39.80658 | 11895 ft | 371 kts | 175° |
| 2026-04-27 18:13 | -3.33600 | 39.80898 | 11470 ft | 369 kts | 175° |
| 2026-04-27 18:13 | -3.36153 | 39.81138 | 11047 ft | 367 kts | 175° |
| 2026-04-27 18:13 | -3.38690 | 39.81376 | 10629 ft | 366 kts | 175° |
| 2026-04-27 18:14 | -3.41199 | 39.81611 | 10428 ft | 357 kts | 175° |
| 2026-04-27 18:14 | -3.43644 | 39.81840 | 10250 ft | 349 kts | 175° |
| 2026-04-27 18:14 | -3.46023 | 39.82063 | 10083 ft | 332 kts | 175° |
| 2026-04-27 18:14 | -3.48226 | 39.82123 | 9914 ft | 304 kts | 187° |
| 2026-04-27 18:15 | -3.50217 | 39.81684 | 9677 ft | 287 kts | 194° |
| 2026-04-27 18:15 | -3.52154 | 39.81181 | 9315 ft | 286 kts | 193° |
| 2026-04-27 18:15 | -3.54047 | 39.80705 | 9015 ft | 278 kts | 193° |
| 2026-04-27 18:15 | -3.55926 | 39.80242 | 8700 ft | 278 kts | 193° |
| 2026-04-27 18:16 | -3.57803 | 39.79786 | 8393 ft | 277 kts | 193° |
| 2026-04-27 18:16 | -3.59673 | 39.79335 | 8072 ft | 277 kts | 193° |
| 2026-04-27 18:16 | -3.61545 | 39.78887 | 7758 ft | 277 kts | 193° |
| 2026-04-27 18:16 | -3.63422 | 39.78438 | 7435 ft | 277 kts | 192° |
| 2026-04-27 18:17 | -3.65293 | 39.77991 | 7110 ft | 276 kts | 192° |
| 2026-04-27 18:17 | -3.67163 | 39.77546 | 6792 ft | 276 kts | 192° |
| 2026-04-27 18:17 | -3.69026 | 39.77103 | 6528 ft | 274 kts | 192° |
| 2026-04-27 18:17 | -3.70875 | 39.76663 | 6223 ft | 272 kts | 192° |
| 2026-04-27 18:18 | -3.72703 | 39.76228 | 5890 ft | 262 kts | 192° |
| 2026-04-27 18:18 | -3.74414 | 39.75757 | 5484 ft | 249 kts | 201° |
| 2026-04-27 18:18 | -3.75915 | 39.74995 | 5209 ft | 239 kts | 207° |
| 2026-04-27 18:18 | -3.77371 | 39.74138 | 4965 ft | 247 kts | 208° |
| 2026-04-27 18:19 | -3.78873 | 39.73261 | 4676 ft | 252 kts | 207° |
| 2026-04-27 18:19 | -3.80394 | 39.72396 | 4358 ft | 250 kts | 207° |
| 2026-04-27 18:19 | -3.81898 | 39.71549 | 4073 ft | 245 kts | 207° |
| 2026-04-27 18:19 | -3.83343 | 39.70736 | 3948 ft | 232 kts | 207° |
| 2026-04-27 18:20 | -3.84718 | 39.69963 | 3734 ft | 224 kts | 206° |
| 2026-04-27 18:20 | -3.86052 | 39.69214 | 3506 ft | 216 kts | 206° |
| 2026-04-27 18:20 | -3.87329 | 39.68497 | 3241 ft | 205 kts | 206° |
| 2026-04-27 18:20 | -3.88544 | 39.67813 | 2952 ft | 195 kts | 206° |
| 2026-04-27 18:21 | -3.89693 | 39.67168 | 2688 ft | 184 kts | 206° |
| 2026-04-27 18:21 | -3.90786 | 39.66553 | 2447 ft | 177 kts | 206° |
| 2026-04-27 18:21 | -3.91848 | 39.65957 | 2243 ft | 171 kts | 206° |
| 2026-04-27 18:21 | -3.92840 | 39.65399 | 2022 ft | 160 kts | 206° |
| 2026-04-27 18:22 | -3.93788 | 39.64868 | 1841 ft | 153 kts | 206° |
| 2026-04-27 18:22 | -3.94692 | 39.64360 | 1675 ft | 145 kts | 206° |
| 2026-04-27 18:22 | -3.95564 | 39.63870 | 1456 ft | 144 kts | 206° |
| 2026-04-27 18:22 | -3.96443 | 39.63376 | 1282 ft | 146 kts | 207° |
| 2026-04-27 18:23 | -3.97346 | 39.62869 | 1113 ft | 151 kts | 208° |
| 2026-04-27 18:23 | -3.98267 | 39.62351 | 898 ft | 151 kts | 208° |
| 2026-04-27 18:23 | -3.99161 | 39.61848 | 722 ft | 145 kts | 208° |
| 2026-04-27 18:23 | -4.00050 | 39.61349 | 552 ft | 146 kts | 209° |
| 2026-04-27 18:24 | -4.00924 | 39.60856 | 325 ft | 145 kts | 207° |
| 2026-04-27 18:24 | -4.01815 | 39.60362 | 218 ft | 141 kts | 208° |
| 2026-04-27 18:24 | -4.02563 | 39.59942 | 219 ft | 102 kts | 210° |
| 2026-04-27 18:24 | -4.03049 | 39.59671 | 221 ft | 57 kts | 209° |
| 2026-04-27 18:25 | -4.03269 | 39.59548 | 219 ft | 21 kts | 194° |
| 2026-04-27 18:25 | -4.03326 | 39.59631 | 217 ft | 14 kts | 88° |
| 2026-04-27 18:25 | -4.03328 | 39.59670 | 216 ft | 4 kts | 91° |
| 2026-04-27 18:25 | -4.03325 | 39.59701 | 212 ft | 7 kts | 77° |
| 2026-04-27 18:26 | -4.03260 | 39.59754 | 219 ft | 16 kts | 29° |
| 2026-04-27 18:26 | -4.03162 | 39.59809 | 218 ft | 16 kts | 29° |
| 2026-04-27 18:26 | -4.03068 | 39.59863 | 217 ft | 14 kts | 29° |
| 2026-04-27 18:26 | -4.03012 | 39.59894 | 221 ft | 7 kts | 29° |
| 2026-04-27 18:27 | -4.02968 | 39.59919 | 209 ft | 7 kts | 29° |
| 2026-04-27 18:27 | -4.02924 | 39.59943 | 221 ft | 7 kts | 29° |
| 2026-04-27 18:27 | -4.02881 | 39.59968 | 221 ft | 7 kts | 29° |
| 2026-04-27 18:27 | -4.02840 | 39.59996 | 219 ft | 7 kts | 54° |
| 2026-04-27 18:28 | -4.02847 | 39.60044 | 215 ft | 7 kts | 119° |
| 2026-04-27 18:28 | -4.02872 | 39.60089 | 209 ft | 7 kts | 119° |
| 2026-04-27 18:28 | -4.02897 | 39.60134 | 209 ft | 7 kts | 118° |
| 2026-04-27 18:28 | -4.02922 | 39.60179 | 217 ft | 7 kts | 118° |
| 2026-04-27 18:29 | -4.02950 | 39.60220 | 216 ft | 7 kts | 141° |
| 2026-04-27 18:29 | -4.03000 | 39.60220 | 211 ft | 8 kts | 204° |
| 2026-04-27 18:29 | -4.03050 | 39.60233 | 213 ft | 9 kts | 120° |
| 2026-04-27 18:29 | -4.03064 | 39.60263 | 219 ft | 3 kts | 118° |
| 2026-04-27 18:30 | -4.03070 | 39.60274 | 221 ft | 0 kts | 118° |
| 2026-04-27 18:30 | -4.03071 | 39.60275 | 209 ft | 0 kts | 118° |